St Albans, United Kingdom
Current Conditions -  °F | °C
As of 9:50 PM on Friday 28 Nov 2014 (Local Time) from EGGW Reporting Station
Drizzle Drizzle  
Wind Chill: 50°   Ceiling: Unl
Heat Index: 50°   Visibility: 4mi
Dew Point: 48°   Wind: 7mph
Humidity: 94%   Direction: 70°ENE
Pressure: 29.71"   Gusts: NA
Location:  51.77°N, 0.34°W
Report Text: EGGW 282150Z 07006KT 6000 -DZ NSC 10/09 Q1006
Loading
Personal Weather Stations






























Interactive Weather Map New forecast layout! Learn more

10-Day Weather Forecast

Advertisements
Track Severe Weather on mobile